createdAt,value
2022-12-31T00:00:44.228Z,7.51
2022-12-31T00:01:46.131Z,7.11
2022-12-31T00:02:47.995Z,7.07
2022-12-31T00:03:49.866Z,6.61
2022-12-31T00:04:51.655Z,6.87
2022-12-31T00:05:53.453Z,6.76
2022-12-31T00:06:55.206Z,6.77
2022-12-31T00:07:56.901Z,7.21
2022-12-31T00:08:58.724Z,7.61
2022-12-31T00:10:00.504Z,7.46
2022-12-31T00:11:02.306Z,7.12
2022-12-31T00:12:04.096Z,7.08
2022-12-31T00:13:05.871Z,6.59
2022-12-31T00:14:07.761Z,5.73
2022-12-31T00:15:09.599Z,6.13
2022-12-31T00:16:12.466Z,5.39
2022-12-31T00:17:14.512Z,5.27
2022-12-31T00:18:16.248Z,5.11
2022-12-31T00:19:18.081Z,5.32
2022-12-31T00:20:19.855Z,5.70
2022-12-31T00:21:21.640Z,4.79
2022-12-31T00:22:23.420Z,5.24
2022-12-31T00:23:25.191Z,5.56
2022-12-31T00:24:27.029Z,5.39
2022-12-31T00:25:28.804Z,5.91
2022-12-31T00:26:30.697Z,5.71
2022-12-31T00:27:32.474Z,5.79
2022-12-31T00:28:34.276Z,6.07
2022-12-31T00:29:36.097Z,5.82
2022-12-31T00:30:38.053Z,5.76
2022-12-31T00:31:39.922Z,6.08
2022-12-31T00:32:41.760Z,5.91
2022-12-31T00:33:43.575Z,5.87
2022-12-31T00:34:45.571Z,5.88
2022-12-31T00:35:47.368Z,5.79
2022-12-31T00:36:49.190Z,5.94
2022-12-31T00:37:50.983Z,6.01
2022-12-31T00:38:52.795Z,5.95
2022-12-31T00:39:54.645Z,5.75
2022-12-31T00:40:56.455Z,6.76
2022-12-31T00:41:58.275Z,6.03
2022-12-31T00:43:00.114Z,5.90
2022-12-31T00:44:01.883Z,6.20
2022-12-31T00:45:03.731Z,6.68
2022-12-31T00:46:05.671Z,6.43
2022-12-31T00:47:07.632Z,5.96
2022-12-31T00:48:09.520Z,6.47
2022-12-31T00:49:11.340Z,6.31
2022-12-31T00:50:13.174Z,7.48
2022-12-31T00:51:14.993Z,10.23
2022-12-31T00:52:16.840Z,11.77
2022-12-31T00:53:18.610Z,13.25
2022-12-31T00:54:20.448Z,12.61
2022-12-31T00:55:22.299Z,12.81
2022-12-31T00:56:24.105Z,10.53
2022-12-31T00:57:26.066Z,10.73
2022-12-31T00:58:27.899Z,10.83
2022-12-31T00:59:29.702Z,9.43
2022-12-31T01:00:31.549Z,7.89
2022-12-31T01:01:33.558Z,7.32
2022-12-31T01:02:35.723Z,6.84
2022-12-31T01:03:37.884Z,6.91
2022-12-31T01:04:39.710Z,7.24
2022-12-31T01:05:42.932Z,7.77
2022-12-31T01:06:44.694Z,6.79
2022-12-31T01:07:46.515Z,7.06
2022-12-31T01:08:48.317Z,7.35
2022-12-31T01:09:50.134Z,6.53
2022-12-31T01:10:51.996Z,6.97
2022-12-31T01:11:53.799Z,7.35
2022-12-31T01:12:55.616Z,6.73
2022-12-31T01:13:57.426Z,8.13
2022-12-31T01:14:59.231Z,7.60
2022-12-31T01:16:01.109Z,7.06
2022-12-31T01:17:02.936Z,7.57
2022-12-31T01:18:04.753Z,7.31
2022-12-31T01:19:06.609Z,7.99
2022-12-31T01:20:08.935Z,8.26
2022-12-31T01:21:10.773Z,7.51
2022-12-31T01:22:12.683Z,7.44
2022-12-31T01:23:14.500Z,7.90
2022-12-31T01:24:16.311Z,7.38
2022-12-31T01:25:18.118Z,7.68
2022-12-31T01:26:19.979Z,6.84
2022-12-31T01:27:21.792Z,8.35
2022-12-31T01:28:23.595Z,7.76
2022-12-31T01:29:25.398Z,7.79
2022-12-31T01:30:27.207Z,8.53
2022-12-31T01:31:29.078Z,8.33
2022-12-31T01:32:30.862Z,8.57
2022-12-31T01:33:32.663Z,8.39
2022-12-31T01:34:34.536Z,8.25
2022-12-31T01:35:36.360Z,9.64
2022-12-31T01:36:38.327Z,9.01
2022-12-31T01:37:40.151Z,8.95
2022-12-31T01:38:42.041Z,9.66
2022-12-31T01:39:43.848Z,8.68
2022-12-31T01:40:45.670Z,9.71
2022-12-31T01:41:47.517Z,9.16
2022-12-31T01:42:49.323Z,9.52
2022-12-31T01:43:51.088Z,9.17
2022-12-31T01:44:52.942Z,9.90
2022-12-31T01:45:54.791Z,9.53
2022-12-31T01:46:56.809Z,9.77
2022-12-31T01:47:58.615Z,9.51
2022-12-31T01:49:00.432Z,9.08
2022-12-31T01:50:02.306Z,9.00
2022-12-31T01:51:04.110Z,9.21
2022-12-31T01:52:05.956Z,9.27
2022-12-31T01:53:07.770Z,8.97
2022-12-31T01:54:09.574Z,9.66
2022-12-31T01:55:11.382Z,10.29
2022-12-31T01:56:13.396Z,10.57
2022-12-31T01:57:15.249Z,11.46
2022-12-31T01:58:17.074Z,11.31
2022-12-31T01:59:18.863Z,10.93
2022-12-31T02:00:20.906Z,10.31
2022-12-31T02:01:22.800Z,11.59
2022-12-31T02:02:24.791Z,9.90
2022-12-31T02:03:26.821Z,10.73
2022-12-31T02:04:28.679Z,11.08
2022-12-31T02:05:30.526Z,10.56
2022-12-31T02:06:32.327Z,10.19
2022-12-31T02:07:34.280Z,10.68
2022-12-31T02:08:41.831Z,11.14
2022-12-31T02:09:39.725Z,12.08
2022-12-31T02:10:41.627Z,11.30
2022-12-31T02:11:43.438Z,11.21
2022-12-31T02:12:45.300Z,10.42
2022-12-31T02:13:47.114Z,11.67
2022-12-31T02:14:48.938Z,11.79
2022-12-31T02:15:50.750Z,11.21
2022-12-31T02:16:52.528Z,10.96
2022-12-31T02:17:54.381Z,11.17
2022-12-31T02:18:56.223Z,11.52
2022-12-31T02:19:58.087Z,11.00
2022-12-31T02:20:59.907Z,11.09
2022-12-31T02:22:01.821Z,11.25
2022-12-31T02:23:03.870Z,11.91
2022-12-31T02:24:05.681Z,11.35
2022-12-31T02:25:07.514Z,10.63
2022-12-31T02:26:09.933Z,10.47
2022-12-31T02:27:11.767Z,10.59
2022-12-31T02:28:13.641Z,11.47
2022-12-31T02:29:15.442Z,11.11
2022-12-31T02:30:17.254Z,11.39
2022-12-31T02:31:19.109Z,12.07
2022-12-31T02:32:20.862Z,11.00
2022-12-31T02:33:22.742Z,11.96
2022-12-31T02:34:24.532Z,12.20
2022-12-31T02:35:26.339Z,11.89
2022-12-31T02:36:28.206Z,11.51
2022-12-31T02:37:30.003Z,11.82
2022-12-31T02:38:31.846Z,12.25
2022-12-31T02:39:33.668Z,12.19
2022-12-31T02:40:35.485Z,12.93
2022-12-31T02:41:37.297Z,13.07
2022-12-31T02:42:39.074Z,11.87
2022-12-31T02:43:40.885Z,12.61
2022-12-31T02:44:42.677Z,12.62
2022-12-31T02:45:44.470Z,12.69
2022-12-31T02:46:46.455Z,13.03
2022-12-31T02:47:48.254Z,13.01
2022-12-31T02:48:50.092Z,12.73
2022-12-31T02:49:51.876Z,12.39
2022-12-31T02:50:53.677Z,12.47
2022-12-31T02:51:55.510Z,12.53
2022-12-31T02:52:57.298Z,12.03
2022-12-31T02:53:59.137Z,12.12
2022-12-31T02:55:00.928Z,11.98
2022-12-31T02:56:02.737Z,11.95
2022-12-31T02:57:04.518Z,12.25
2022-12-31T02:58:06.287Z,12.68
2022-12-31T02:59:08.112Z,11.91
2022-12-31T03:00:10.416Z,11.79
2022-12-31T03:01:12.257Z,12.01
2022-12-31T03:02:14.318Z,11.96
2022-12-31T03:03:16.149Z,12.46
2022-12-31T03:04:18.002Z,11.67
2022-12-31T03:05:19.762Z,11.93
2022-12-31T03:06:21.576Z,12.05
2022-12-31T03:07:23.355Z,12.39
2022-12-31T03:08:25.149Z,12.43
2022-12-31T03:09:26.954Z,12.16
2022-12-31T03:10:28.836Z,12.76
2022-12-31T03:11:30.690Z,12.33
2022-12-31T03:12:32.489Z,12.33
2022-12-31T03:13:34.288Z,11.81
2022-12-31T03:14:36.114Z,12.76
2022-12-31T03:15:37.911Z,12.68
2022-12-31T03:16:39.900Z,11.07
2022-12-31T03:17:41.698Z,11.98
2022-12-31T03:18:43.483Z,12.08
2022-12-31T03:19:45.301Z,12.52
2022-12-31T03:20:47.301Z,12.81
2022-12-31T03:21:49.069Z,12.46
2022-12-31T03:22:50.876Z,12.41
2022-12-31T03:23:52.670Z,13.21
2022-12-31T03:24:54.517Z,12.74
2022-12-31T03:25:56.363Z,12.21
2022-12-31T03:26:58.116Z,12.74
2022-12-31T03:27:59.894Z,12.09
2022-12-31T03:29:01.679Z,13.35
2022-12-31T03:30:03.522Z,12.55
2022-12-31T03:31:05.319Z,13.38
2022-12-31T03:32:07.167Z,13.30
2022-12-31T03:33:08.965Z,13.32
2022-12-31T03:34:10.763Z,13.57
2022-12-31T03:35:12.596Z,13.46
2022-12-31T03:36:14.480Z,14.07
2022-12-31T03:37:16.186Z,14.53
2022-12-31T03:38:18.075Z,13.80
2022-12-31T03:39:19.864Z,14.07
2022-12-31T03:40:21.777Z,13.62
2022-12-31T03:41:23.564Z,13.59
2022-12-31T03:42:25.371Z,13.59
2022-12-31T03:43:27.150Z,13.57
2022-12-31T03:44:28.961Z,14.12
2022-12-31T03:45:30.834Z,13.76
2022-12-31T03:46:32.675Z,13.11
2022-12-31T03:47:34.488Z,14.02
2022-12-31T03:48:36.274Z,14.13
2022-12-31T03:49:38.055Z,13.79
2022-12-31T03:50:39.958Z,13.28
2022-12-31T03:51:41.743Z,14.37
2022-12-31T03:52:43.530Z,14.49
2022-12-31T03:53:45.353Z,14.62
2022-12-31T03:54:47.139Z,13.71
2022-12-31T03:55:48.968Z,14.74
2022-12-31T03:56:54.075Z,13.27
2022-12-31T03:57:54.363Z,14.09
2022-12-31T03:58:56.142Z,14.56
2022-12-31T03:59:57.942Z,14.49
2022-12-31T04:00:59.834Z,15.04
2022-12-31T04:02:01.753Z,14.37
2022-12-31T04:03:03.582Z,14.65
2022-12-31T04:04:05.455Z,14.52
2022-12-31T04:05:07.239Z,14.83
2022-12-31T04:06:09.171Z,14.79
2022-12-31T04:07:10.959Z,14.33
2022-12-31T04:08:12.744Z,14.96
2022-12-31T04:09:14.444Z,14.91
2022-12-31T04:10:16.522Z,15.36
2022-12-31T04:11:21.038Z,14.82
2022-12-31T04:12:21.996Z,15.16
2022-12-31T04:13:23.758Z,14.92
2022-12-31T04:14:25.547Z,15.47
2022-12-31T04:15:27.325Z,15.07
2022-12-31T04:16:29.172Z,15.91
2022-12-31T04:17:30.949Z,14.43
2022-12-31T04:18:32.755Z,15.19
2022-12-31T04:19:34.530Z,14.97
2022-12-31T04:20:36.340Z,14.59
2022-12-31T04:21:38.274Z,15.41
2022-12-31T04:22:40.077Z,15.09
2022-12-31T04:23:41.870Z,14.56
2022-12-31T04:24:43.679Z,15.34
2022-12-31T04:25:45.472Z,15.31
2022-12-31T04:26:47.412Z,15.49
2022-12-31T04:27:49.098Z,15.47
2022-12-31T04:28:50.892Z,15.63
2022-12-31T04:29:52.677Z,16.81
2022-12-31T04:30:54.480Z,16.51
2022-12-31T04:31:56.369Z,15.95
2022-12-31T04:32:58.191Z,16.14
2022-12-31T04:33:59.985Z,15.34
2022-12-31T04:35:01.761Z,15.55
2022-12-31T04:36:03.572Z,16.43
2022-12-31T04:37:05.430Z,15.75
2022-12-31T04:38:07.218Z,16.15
2022-12-31T04:39:08.991Z,16.67
2022-12-31T04:40:11.047Z,15.97
2022-12-31T04:41:12.838Z,15.93
2022-12-31T04:42:14.671Z,15.36
2022-12-31T04:43:16.478Z,15.35
2022-12-31T04:44:18.261Z,15.81
2022-12-31T04:45:20.079Z,15.53
2022-12-31T04:46:21.915Z,16.19
2022-12-31T04:47:24.188Z,15.14
2022-12-31T04:48:26.115Z,15.61
2022-12-31T04:49:27.881Z,16.10
2022-12-31T04:50:29.675Z,15.99
2022-12-31T04:51:31.501Z,14.97
2022-12-31T04:52:38.612Z,15.73
2022-12-31T04:53:36.911Z,16.61
2022-12-31T04:54:38.724Z,17.11
2022-12-31T04:55:40.547Z,16.46
2022-12-31T04:56:42.383Z,16.40
2022-12-31T04:57:44.236Z,16.21
2022-12-31T04:58:46.056Z,16.81
2022-12-31T04:59:47.849Z,15.68
2022-12-31T05:00:49.841Z,16.67
2022-12-31T05:01:51.724Z,17.29
2022-12-31T05:02:53.673Z,19.55
2022-12-31T05:03:55.533Z,22.40
2022-12-31T05:04:57.355Z,23.41
2022-12-31T05:05:59.166Z,23.52
2022-12-31T05:07:00.980Z,21.61
2022-12-31T05:08:02.849Z,19.57
2022-12-31T05:09:04.652Z,17.04
2022-12-31T05:10:06.674Z,17.17
2022-12-31T05:11:08.492Z,19.05
2022-12-31T05:12:10.290Z,17.41
2022-12-31T05:13:12.132Z,18.64
2022-12-31T05:14:13.950Z,18.76
2022-12-31T05:15:15.767Z,18.38
2022-12-31T05:16:17.950Z,20.28
2022-12-31T05:17:19.803Z,21.40
2022-12-31T05:18:21.697Z,21.30
2022-12-31T05:19:23.517Z,20.07
2022-12-31T05:20:25.331Z,17.89
2022-12-31T05:21:27.169Z,18.74
2022-12-31T05:22:28.990Z,19.94
2022-12-31T05:23:30.851Z,17.99
2022-12-31T05:24:32.644Z,18.07
2022-12-31T05:25:34.445Z,17.55
2022-12-31T05:26:36.396Z,18.43
2022-12-31T05:27:38.183Z,18.24
2022-12-31T05:28:40.039Z,18.36
2022-12-31T05:29:41.844Z,18.49
2022-12-31T05:30:43.797Z,19.09
2022-12-31T05:31:45.585Z,19.16
2022-12-31T05:32:47.395Z,18.36
2022-12-31T05:33:49.251Z,17.81
2022-12-31T05:34:51.069Z,17.72
2022-12-31T05:35:52.872Z,18.65
2022-12-31T05:36:54.670Z,17.94
2022-12-31T05:37:56.492Z,16.89
2022-12-31T05:38:58.336Z,18.44
2022-12-31T05:40:00.169Z,18.11
2022-12-31T05:41:01.959Z,19.45
2022-12-31T05:42:03.931Z,19.60
2022-12-31T05:43:05.787Z,19.78
2022-12-31T05:44:07.710Z,20.15
2022-12-31T05:45:09.522Z,19.36
2022-12-31T05:46:11.487Z,18.52
2022-12-31T05:47:13.326Z,18.77
2022-12-31T05:48:15.147Z,18.21
2022-12-31T05:49:16.989Z,17.53
2022-12-31T05:50:19.416Z,18.40
2022-12-31T05:51:21.197Z,16.95
2022-12-31T05:52:23.042Z,17.90
2022-12-31T05:53:24.913Z,17.27
2022-12-31T05:54:26.781Z,17.66
2022-12-31T05:55:28.579Z,18.42
2022-12-31T05:56:31.426Z,18.55
2022-12-31T05:57:33.317Z,20.32
2022-12-31T05:58:35.165Z,18.69
2022-12-31T05:59:37.004Z,17.44
2022-12-31T06:00:38.821Z,18.53
2022-12-31T06:01:40.681Z,19.48
2022-12-31T06:02:42.530Z,19.27
2022-12-31T06:03:44.490Z,18.83
2022-12-31T06:04:46.363Z,19.42
2022-12-31T06:05:48.176Z,20.29
2022-12-31T06:06:49.995Z,20.58
2022-12-31T06:07:51.763Z,20.02
2022-12-31T06:08:53.641Z,20.77
2022-12-31T06:09:55.551Z,20.14
2022-12-31T06:10:57.355Z,20.13
2022-12-31T06:11:59.154Z,18.63
2022-12-31T06:13:01.065Z,18.71
2022-12-31T06:14:02.865Z,18.97
2022-12-31T06:15:04.867Z,19.35
2022-12-31T06:16:07.230Z,20.11
2022-12-31T06:17:09.124Z,19.40
2022-12-31T06:18:10.947Z,19.34
2022-12-31T06:19:12.753Z,20.30
2022-12-31T06:20:14.606Z,20.22
2022-12-31T06:21:16.419Z,19.96
2022-12-31T06:22:18.221Z,19.94
2022-12-31T06:23:20.053Z,20.61
2022-12-31T06:24:21.855Z,20.15
2022-12-31T06:25:23.807Z,20.11
2022-12-31T06:26:25.732Z,18.99
2022-12-31T06:27:27.535Z,20.11
2022-12-31T06:28:29.400Z,19.67
2022-12-31T06:29:31.222Z,20.31
2022-12-31T06:30:33.078Z,19.79
2022-12-31T06:31:34.917Z,20.17
2022-12-31T06:32:36.795Z,19.97
2022-12-31T06:33:38.614Z,22.69
2022-12-31T06:34:40.415Z,23.45
2022-12-31T06:35:42.230Z,23.86
2022-12-31T06:36:44.061Z,21.78
2022-12-31T06:37:45.888Z,22.36
2022-12-31T06:38:47.724Z,21.35
2022-12-31T06:39:49.525Z,20.36
2022-12-31T06:40:51.582Z,21.21
2022-12-31T06:41:53.387Z,20.71
2022-12-31T06:42:59.840Z,21.30
2022-12-31T06:43:58.896Z,21.04
2022-12-31T06:45:00.709Z,20.55
2022-12-31T06:46:02.576Z,21.02
2022-12-31T06:47:04.482Z,21.59
2022-12-31T06:48:06.273Z,21.14
2022-12-31T06:49:08.077Z,21.23
2022-12-31T06:50:10.122Z,22.58
2022-12-31T06:51:16.750Z,23.29
2022-12-31T06:52:15.585Z,22.88
2022-12-31T06:53:17.404Z,22.49
2022-12-31T06:54:19.289Z,22.49
2022-12-31T06:55:21.104Z,24.14
2022-12-31T06:56:26.524Z,24.72
2022-12-31T06:57:26.576Z,24.11
2022-12-31T06:58:28.373Z,25.61
2022-12-31T06:59:30.294Z,23.80
2022-12-31T07:00:32.094Z,25.18
2022-12-31T07:01:34.033Z,24.47
2022-12-31T07:02:35.966Z,25.62
2022-12-31T07:03:37.774Z,27.57
2022-12-31T07:04:39.604Z,26.32
2022-12-31T07:05:41.443Z,24.59
2022-12-31T07:06:43.254Z,23.58
2022-12-31T07:07:45.132Z,23.08
2022-12-31T07:08:46.913Z,21.65
2022-12-31T07:09:48.711Z,22.22
2022-12-31T07:10:50.502Z,21.51
2022-12-31T07:11:52.327Z,21.81
2022-12-31T07:12:54.102Z,22.71
2022-12-31T07:13:55.916Z,22.79
2022-12-31T07:14:57.791Z,20.99
2022-12-31T07:15:59.627Z,21.58
2022-12-31T07:17:01.598Z,22.75
2022-12-31T07:18:03.380Z,23.47
2022-12-31T07:19:05.354Z,25.35
2022-12-31T07:20:07.686Z,23.71
2022-12-31T07:21:09.470Z,22.83
2022-12-31T07:22:11.358Z,23.83
2022-12-31T07:23:13.139Z,25.07
2022-12-31T07:24:14.915Z,22.87
2022-12-31T07:25:16.713Z,21.03
2022-12-31T07:26:18.920Z,21.99
2022-12-31T07:27:20.753Z,19.97
2022-12-31T07:28:22.591Z,20.22
2022-12-31T07:29:24.365Z,20.53
2022-12-31T07:30:26.164Z,20.75
2022-12-31T07:31:28.029Z,21.45
2022-12-31T07:32:29.847Z,21.01
2022-12-31T07:33:31.641Z,22.90
2022-12-31T07:34:33.430Z,22.27
2022-12-31T07:35:35.618Z,21.82
2022-12-31T07:36:37.510Z,21.21
2022-12-31T07:37:39.324Z,23.27
2022-12-31T07:38:41.119Z,22.21
2022-12-31T07:39:42.956Z,24.13
2022-12-31T07:40:44.718Z,25.71
2022-12-31T07:41:46.502Z,26.11
2022-12-31T07:42:48.786Z,23.47
2022-12-31T07:43:51.561Z,22.81
2022-12-31T07:44:53.336Z,21.52
2022-12-31T07:45:55.193Z,22.94
2022-12-31T07:46:57.042Z,22.02
2022-12-31T07:48:02.458Z,22.29
2022-12-31T07:49:02.509Z,21.28
2022-12-31T07:50:04.289Z,22.79
2022-12-31T07:51:06.090Z,23.12
2022-12-31T07:52:07.891Z,21.83
2022-12-31T07:53:09.730Z,22.77
2022-12-31T07:54:14.248Z,22.34
2022-12-31T07:55:15.118Z,22.58
2022-12-31T07:56:17.213Z,22.19
2022-12-31T07:57:19.015Z,22.75
2022-12-31T07:58:20.853Z,25.99
2022-12-31T07:59:24.423Z,26.43
2022-12-31T08:00:26.304Z,27.30
2022-12-31T08:01:28.354Z,26.53
2022-12-31T08:02:30.259Z,26.48
2022-12-31T08:03:32.048Z,25.11
2022-12-31T08:04:33.841Z,22.94
2022-12-31T08:05:35.634Z,22.05
2022-12-31T08:06:37.515Z,21.53
2022-12-31T08:07:39.301Z,23.06
2022-12-31T08:08:41.123Z,22.85
2022-12-31T08:09:42.915Z,24.68
2022-12-31T08:10:44.710Z,26.09
2022-12-31T08:11:46.497Z,26.39
2022-12-31T08:12:48.278Z,25.36
2022-12-31T08:13:50.104Z,24.93
2022-12-31T08:14:51.886Z,24.84
2022-12-31T08:15:53.741Z,25.46
2022-12-31T08:16:55.697Z,25.93
2022-12-31T08:17:57.467Z,25.84
2022-12-31T08:18:59.294Z,25.36
2022-12-31T08:20:01.083Z,27.27
2022-12-31T08:21:02.879Z,28.51
2022-12-31T08:22:04.663Z,27.76
2022-12-31T08:23:06.435Z,27.56
2022-12-31T08:24:08.280Z,27.85
2022-12-31T08:25:10.315Z,27.41
2022-12-31T08:26:12.295Z,29.37
2022-12-31T08:27:14.079Z,28.80
2022-12-31T08:28:15.881Z,28.67
2022-12-31T08:29:17.722Z,27.50
2022-12-31T08:30:19.510Z,29.19
2022-12-31T08:31:21.386Z,28.43
2022-12-31T08:32:23.202Z,28.89
2022-12-31T08:33:25.046Z,29.55
2022-12-31T08:34:26.890Z,27.81
2022-12-31T08:35:28.832Z,28.90
2022-12-31T08:36:30.623Z,29.35
2022-12-31T08:37:32.420Z,26.89
2022-12-31T08:38:34.212Z,27.27
2022-12-31T08:39:36.027Z,25.77
2022-12-31T08:40:38.122Z,26.75
2022-12-31T08:41:42.971Z,24.50
2022-12-31T08:42:43.533Z,23.55
2022-12-31T08:43:45.298Z,22.46
2022-12-31T08:44:47.110Z,22.79
2022-12-31T08:45:48.924Z,24.35
2022-12-31T08:46:50.805Z,24.16
2022-12-31T08:47:59.683Z,24.09
2022-12-31T08:48:57.742Z,25.18
2022-12-31T08:49:59.593Z,23.84
2022-12-31T08:51:01.488Z,25.09
2022-12-31T08:52:03.334Z,24.27
2022-12-31T08:53:05.178Z,24.83
2022-12-31T08:54:07.024Z,25.59
2022-12-31T08:55:08.843Z,26.56
2022-12-31T08:56:11.028Z,26.32
2022-12-31T08:57:12.970Z,26.15
2022-12-31T08:58:14.763Z,25.26
2022-12-31T08:59:16.558Z,24.82
2022-12-31T09:00:18.704Z,25.21
2022-12-31T09:01:20.783Z,24.10
2022-12-31T09:02:22.578Z,24.39
2022-12-31T09:03:24.391Z,24.62
2022-12-31T09:04:26.230Z,24.96
2022-12-31T09:05:28.108Z,24.65
2022-12-31T09:06:29.895Z,26.29
2022-12-31T09:07:31.725Z,25.91
2022-12-31T09:08:33.493Z,25.78
2022-12-31T09:09:35.276Z,24.63
2022-12-31T09:10:37.202Z,24.75
2022-12-31T09:11:38.995Z,24.70
2022-12-31T09:12:40.786Z,24.54
2022-12-31T09:13:42.576Z,25.42
2022-12-31T09:14:44.372Z,23.96
2022-12-31T09:15:46.151Z,23.62
2022-12-31T09:16:47.984Z,23.77
2022-12-31T09:17:49.751Z,25.05
2022-12-31T09:18:51.584Z,24.46
2022-12-31T09:19:53.395Z,25.05
2022-12-31T09:20:55.243Z,23.93
2022-12-31T09:21:57.061Z,23.55
2022-12-31T09:22:58.902Z,25.00
2022-12-31T09:24:04.533Z,24.49
2022-12-31T09:25:04.316Z,23.55
2022-12-31T09:26:06.271Z,24.76
2022-12-31T09:27:08.069Z,24.81
2022-12-31T09:28:09.857Z,24.31
2022-12-31T09:29:11.687Z,25.19
2022-12-31T09:30:13.789Z,26.14
2022-12-31T09:31:15.697Z,25.85
2022-12-31T09:32:17.451Z,25.55
2022-12-31T09:33:19.257Z,27.18
2022-12-31T09:34:21.186Z,27.57
2022-12-31T09:35:22.986Z,27.37
2022-12-31T09:36:24.847Z,27.34
2022-12-31T09:37:26.654Z,27.06
2022-12-31T09:38:28.452Z,27.56
2022-12-31T09:39:30.249Z,27.39
2022-12-31T09:40:32.175Z,27.32
2022-12-31T09:41:34.040Z,28.26
2022-12-31T09:42:35.847Z,27.53
2022-12-31T09:43:37.665Z,26.61
2022-12-31T09:44:39.487Z,26.32
2022-12-31T09:45:41.343Z,27.65
2022-12-31T09:46:43.155Z,27.61
2022-12-31T09:47:44.962Z,26.46
2022-12-31T09:48:46.774Z,26.98
2022-12-31T09:49:48.590Z,27.93
2022-12-31T09:50:50.421Z,28.84
2022-12-31T09:51:52.305Z,28.71
2022-12-31T09:52:54.098Z,29.24
2022-12-31T09:53:55.905Z,28.42
2022-12-31T09:54:57.749Z,28.07
2022-12-31T09:55:59.564Z,28.19
2022-12-31T09:57:01.398Z,26.55
2022-12-31T09:58:03.205Z,25.95
2022-12-31T09:59:05.002Z,25.25
2022-12-31T10:00:07.026Z,26.15
2022-12-31T10:01:09.031Z,25.44
2022-12-31T10:02:11.266Z,23.81
2022-12-31T10:03:13.356Z,23.98
2022-12-31T10:04:15.221Z,23.90
2022-12-31T10:05:17.195Z,21.61
2022-12-31T10:06:19.212Z,21.74
2022-12-31T10:07:21.056Z,21.49
2022-12-31T10:08:22.875Z,20.93
2022-12-31T10:09:24.675Z,20.51
2022-12-31T10:10:26.491Z,21.80
2022-12-31T10:11:28.289Z,21.63
2022-12-31T10:12:30.125Z,21.35
2022-12-31T10:13:31.967Z,22.00
2022-12-31T10:14:33.766Z,22.17
2022-12-31T10:15:35.573Z,22.19
2022-12-31T10:16:37.527Z,22.37
2022-12-31T10:17:39.444Z,22.75
2022-12-31T10:18:41.257Z,22.23
2022-12-31T10:19:43.062Z,21.59
2022-12-31T10:20:45.569Z,22.82
2022-12-31T10:21:47.487Z,24.05
2022-12-31T10:22:49.351Z,23.51
2022-12-31T10:23:51.151Z,22.10
2022-12-31T10:24:52.976Z,21.49
2022-12-31T10:25:54.901Z,21.71
2022-12-31T10:26:56.744Z,20.33
2022-12-31T10:27:58.592Z,21.56
2022-12-31T10:29:00.409Z,21.73
2022-12-31T10:30:02.400Z,21.64
2022-12-31T10:31:04.282Z,20.69
2022-12-31T10:32:06.050Z,22.21
2022-12-31T10:33:07.925Z,20.99
2022-12-31T10:34:09.981Z,20.37
2022-12-31T10:35:13.053Z,22.80
2022-12-31T10:36:14.913Z,22.04
2022-12-31T10:37:16.704Z,22.06
2022-12-31T10:38:18.718Z,21.64
2022-12-31T10:39:24.250Z,21.99
2022-12-31T10:40:24.238Z,21.85
2022-12-31T10:41:26.065Z,21.49
2022-12-31T10:42:27.897Z,23.01
2022-12-31T10:43:29.751Z,22.03
2022-12-31T10:44:31.564Z,21.65
2022-12-31T10:45:33.377Z,22.90
2022-12-31T10:46:35.204Z,21.11
2022-12-31T10:47:37.047Z,21.64
2022-12-31T10:48:38.860Z,22.02
2022-12-31T10:49:40.669Z,22.18
2022-12-31T10:50:42.497Z,22.16
2022-12-31T10:51:44.513Z,23.19
2022-12-31T10:52:46.330Z,21.18
2022-12-31T10:53:48.177Z,23.77
2022-12-31T10:54:49.997Z,24.82
2022-12-31T10:55:51.813Z,23.39
2022-12-31T10:56:53.599Z,23.26
2022-12-31T10:57:58.690Z,22.16
2022-12-31T10:58:59.003Z,21.48
2022-12-31T11:00:00.806Z,22.68
2022-12-31T11:01:02.762Z,21.83
2022-12-31T11:02:04.798Z,23.39
2022-12-31T11:03:06.739Z,24.29
2022-12-31T11:04:08.628Z,23.76
2022-12-31T11:05:10.441Z,23.16
2022-12-31T11:06:12.762Z,23.31
2022-12-31T11:07:14.614Z,24.84
2022-12-31T11:08:16.421Z,24.23
2022-12-31T11:09:18.286Z,24.52
2022-12-31T11:10:20.403Z,22.28
2022-12-31T11:11:22.208Z,23.37
2022-12-31T11:12:24.016Z,23.00
2022-12-31T11:13:25.852Z,21.45
2022-12-31T11:14:27.710Z,22.05
2022-12-31T11:15:29.573Z,21.85
2022-12-31T11:16:31.436Z,21.51
2022-12-31T11:17:33.236Z,20.89
2022-12-31T11:18:35.053Z,21.73
2022-12-31T11:19:36.913Z,22.19
2022-12-31T11:20:38.868Z,22.38
2022-12-31T11:21:41.759Z,21.81
2022-12-31T11:22:43.824Z,21.27
2022-12-31T11:23:45.669Z,21.20
2022-12-31T11:24:47.578Z,21.56
2022-12-31T11:25:49.417Z,20.49
2022-12-31T11:26:51.233Z,20.79
2022-12-31T11:27:53.057Z,21.41
2022-12-31T11:28:54.860Z,21.33
2022-12-31T11:29:56.725Z,20.46
2022-12-31T11:30:58.529Z,20.35
2022-12-31T11:32:00.291Z,19.91
2022-12-31T11:33:02.118Z,20.65
2022-12-31T11:34:03.951Z,20.81
2022-12-31T11:35:05.798Z,21.66
2022-12-31T11:36:08.095Z,21.54
2022-12-31T11:37:09.881Z,21.37
2022-12-31T11:38:11.725Z,21.65
2022-12-31T11:39:13.537Z,21.23
2022-12-31T11:40:15.752Z,21.92
2022-12-31T11:41:17.536Z,22.64
2022-12-31T11:42:19.339Z,20.71
2022-12-31T11:43:21.136Z,20.84
2022-12-31T11:44:22.936Z,21.05
2022-12-31T11:45:24.779Z,21.66
2022-12-31T11:46:26.634Z,20.61
2022-12-31T11:47:28.488Z,20.45
2022-12-31T11:48:31.547Z,23.66
2022-12-31T11:49:33.907Z,27.86
2022-12-31T11:50:35.767Z,27.99
2022-12-31T11:51:39.572Z,30.36
2022-12-31T11:52:41.151Z,28.66
2022-12-31T11:53:42.975Z,28.68
2022-12-31T11:54:44.794Z,27.65
2022-12-31T11:55:46.652Z,28.97
2022-12-31T11:56:48.534Z,23.96
2022-12-31T11:57:50.327Z,22.71
2022-12-31T11:58:52.146Z,21.56
2022-12-31T11:59:53.905Z,21.99
2022-12-31T12:00:55.855Z,21.04
2022-12-31T12:01:57.637Z,20.85
2022-12-31T12:02:59.606Z,22.38
2022-12-31T12:04:01.577Z,21.35
2022-12-31T12:05:10.311Z,20.19
2022-12-31T12:06:07.255Z,21.03
2022-12-31T12:07:09.035Z,22.86
2022-12-31T12:08:10.823Z,21.95
2022-12-31T12:09:12.639Z,21.31
2022-12-31T12:10:14.517Z,20.97
2022-12-31T12:11:16.362Z,20.09
2022-12-31T12:12:18.143Z,19.24
2022-12-31T12:13:19.849Z,19.09
2022-12-31T12:14:21.670Z,18.75
2022-12-31T12:15:23.466Z,19.19
2022-12-31T12:16:25.342Z,18.32
2022-12-31T12:17:27.125Z,18.61
2022-12-31T12:18:28.934Z,19.41
2022-12-31T12:19:30.721Z,18.17
2022-12-31T12:20:32.611Z,19.49
2022-12-31T12:21:34.426Z,19.40
2022-12-31T12:22:36.209Z,19.13
2022-12-31T12:23:38.007Z,20.56
2022-12-31T12:24:39.899Z,20.25
2022-12-31T12:25:41.694Z,19.84
2022-12-31T12:26:43.713Z,20.38
2022-12-31T12:27:45.564Z,20.22
2022-12-31T12:28:47.344Z,20.11
2022-12-31T12:29:49.172Z,20.33
2022-12-31T12:30:50.946Z,19.55
2022-12-31T12:31:52.839Z,20.11
2022-12-31T12:32:54.716Z,20.89
2022-12-31T12:33:56.499Z,21.97
2022-12-31T12:34:58.280Z,21.62
2022-12-31T12:36:00.101Z,21.77
2022-12-31T12:37:01.917Z,21.73
2022-12-31T12:38:03.707Z,21.42
2022-12-31T12:39:05.497Z,19.71
2022-12-31T12:40:07.503Z,18.93
2022-12-31T12:41:09.406Z,20.11
2022-12-31T12:42:11.356Z,19.28
2022-12-31T12:43:13.140Z,20.23
2022-12-31T12:44:14.937Z,18.49
2022-12-31T12:45:16.725Z,19.10
2022-12-31T12:46:18.556Z,18.09
2022-12-31T12:47:20.422Z,18.28
2022-12-31T12:48:22.201Z,18.30
2022-12-31T12:49:24.016Z,18.09
2022-12-31T12:50:25.889Z,17.52
2022-12-31T12:51:27.690Z,18.67
2022-12-31T12:52:29.510Z,18.53
2022-12-31T12:53:31.322Z,19.47
2022-12-31T12:54:33.114Z,19.98
2022-12-31T12:55:34.899Z,24.53
2022-12-31T12:56:36.685Z,24.66
2022-12-31T12:57:38.516Z,22.20
2022-12-31T12:58:40.332Z,24.05
2022-12-31T12:59:42.162Z,29.31
2022-12-31T13:00:44.005Z,30.51
2022-12-31T13:01:46.120Z,31.75
2022-12-31T13:02:48.170Z,28.20
2022-12-31T13:04:23.728Z,26.47
2022-12-31T13:04:53.578Z,25.81
2022-12-31T13:05:55.356Z,24.71
2022-12-31T13:06:57.147Z,24.55
2022-12-31T13:07:59.028Z,23.37
2022-12-31T13:09:00.817Z,21.15
2022-12-31T13:10:02.596Z,19.80
2022-12-31T13:11:04.507Z,19.00
2022-12-31T13:12:07.944Z,18.76
2022-12-31T13:13:25.919Z,19.57
2022-12-31T13:14:13.522Z,25.31
2022-12-31T13:15:15.360Z,35.31
2022-12-31T13:16:17.251Z,35.32
2022-12-31T13:17:19.007Z,25.70
2022-12-31T13:18:22.059Z,23.43
2022-12-31T13:19:23.906Z,21.07
2022-12-31T13:20:25.897Z,20.76
2022-12-31T13:21:28.213Z,22.09